createdAt,value
2022-10-17T00:04:44.309Z,101445.63
2022-10-17T00:09:45.767Z,101433.03
2022-10-17T00:14:47.226Z,101426.72
2022-10-17T00:19:48.681Z,101422.94
2022-10-17T00:24:50.142Z,101416.69
2022-10-17T00:29:51.816Z,101426.25
2022-10-17T00:34:53.265Z,101425.25
2022-10-17T00:39:54.707Z,101433.50
2022-10-17T00:45:20.883Z,101454.00
2022-10-17T00:50:22.337Z,101442.00
2022-10-17T00:55:25.561Z,101440.19
2022-10-17T01:00:27.113Z,101431.06
2022-10-17T01:05:28.670Z,101431.91
2022-10-17T01:10:33.112Z,101419.34
2022-10-17T01:15:43.637Z,101428.78
2022-10-17T01:21:09.429Z,101440.88
2022-10-17T01:26:44.017Z,101422.59
2022-10-17T01:31:46.977Z,101422.09
2022-10-17T01:37:08.524Z,101407.78
2022-10-17T01:42:25.740Z,101408.53
2022-10-17T01:47:31.887Z,101394.06
2022-10-17T01:52:38.685Z,101362.38
2022-10-17T01:57:42.365Z,101359.66
2022-10-17T02:02:43.949Z,101340.56
2022-10-17T02:07:45.403Z,101338.09
2022-10-17T02:13:07.509Z,101325.66
2022-10-17T02:18:38.223Z,101328.59
2022-10-17T02:23:52.115Z,101337.84
2022-10-17T02:29:15.106Z,101323.25
2022-10-17T02:34:30.693Z,101326.53
2022-10-17T02:39:32.140Z,101337.06
2022-10-17T02:44:33.584Z,101337.06
2022-10-17T02:49:37.266Z,101317.53
2022-10-17T02:54:43.692Z,101304.59
2022-10-17T02:59:45.453Z,101308.09
2022-10-17T03:04:46.959Z,101301.41
2022-10-17T03:09:48.409Z,101300.34
2022-10-17T03:14:49.855Z,101281.47
2022-10-17T03:19:51.319Z,101283.97
2022-10-17T03:24:52.779Z,101269.75
2022-10-17T03:29:54.235Z,101258.88
2022-10-17T03:34:55.681Z,101245.47
2022-10-17T03:39:57.133Z,101231.28
2022-10-17T03:44:58.580Z,101237.50
2022-10-17T03:50:00.070Z,101240.31
2022-10-17T03:55:01.535Z,101233.28
2022-10-17T04:00:03.949Z,101227.72
2022-10-17T04:05:05.818Z,101215.47
2022-10-17T04:10:07.689Z,101210.88
2022-10-17T04:15:09.544Z,101212.06
2022-10-17T04:20:11.028Z,101232.34
2022-10-17T04:25:12.482Z,101211.47
2022-10-17T04:30:13.955Z,101214.69
2022-10-17T04:35:15.462Z,101216.97
2022-10-17T04:40:16.996Z,101221.06
2022-10-17T04:45:18.461Z,101214.72
2022-10-17T04:50:19.910Z,101196.72
2022-10-17T04:55:21.363Z,101226.34
2022-10-17T05:00:22.816Z,101215.06
2022-10-17T05:05:24.294Z,101203.88
2022-10-17T05:10:25.732Z,101202.97
2022-10-17T05:15:27.180Z,101192.19
2022-10-17T05:20:28.625Z,101196.94
2022-10-17T05:25:30.079Z,101203.81
2022-10-17T05:30:35.192Z,101191.53
2022-10-17T05:35:38.954Z,101188.31
2022-10-17T05:40:40.404Z,101199.94
2022-10-17T05:45:41.901Z,101192.25
2022-10-17T05:50:43.362Z,101192.63
2022-10-17T05:55:44.809Z,101202.41
2022-10-17T06:05:52.642Z,101200.09
2022-10-17T06:10:54.102Z,101205.03
2022-10-17T06:15:55.569Z,101216.81
2022-10-17T06:21:07.824Z,101196.19
2022-10-17T06:26:09.264Z,101174.47
2022-10-17T06:31:13.121Z,101185.00
2022-10-17T06:36:14.757Z,101177.22
2022-10-17T06:41:16.623Z,101177.56
2022-10-17T06:46:18.652Z,101154.66
2022-10-17T06:51:20.129Z,101140.06
2022-10-17T06:56:21.589Z,101165.91
2022-10-17T07:01:23.091Z,101167.69
2022-10-17T07:06:24.699Z,101162.38
2022-10-17T07:11:26.148Z,101172.34
2022-10-17T07:16:27.910Z,101164.09
2022-10-17T07:21:29.423Z,101172.66
2022-10-17T07:26:30.872Z,101176.06
2022-10-17T07:31:32.316Z,101173.03
2022-10-17T07:36:33.789Z,101172.91
2022-10-17T07:41:35.249Z,101196.63
2022-10-17T07:46:36.704Z,101200.91
2022-10-17T07:51:38.232Z,101170.53
2022-10-17T07:56:39.699Z,101150.03
2022-10-17T08:01:41.159Z,101138.63
2022-10-17T08:06:42.628Z,101139.47
2022-10-17T08:11:44.185Z,101155.38
2022-10-17T08:16:45.700Z,101148.69
2022-10-17T08:21:47.159Z,101135.72
2022-10-17T08:26:51.710Z,101170.94
2022-10-17T08:31:58.512Z,101158.69
2022-10-17T08:37:03.007Z,101171.19
2022-10-17T08:42:26.957Z,101159.19
2022-10-17T08:47:40.962Z,101173.16
2022-10-17T08:52:51.792Z,101164.38
2022-10-17T08:57:53.271Z,101179.59
2022-10-17T09:03:15.978Z,101189.06
2022-10-17T09:08:22.666Z,101201.28
2022-10-17T09:13:32.742Z,101194.91
2022-10-17T09:18:43.070Z,101170.75
2022-10-17T09:23:53.304Z,101177.44
2022-10-17T09:29:01.158Z,101170.69
2022-10-17T09:34:02.802Z,101172.03
2022-10-17T09:39:22.386Z,101202.03
2022-10-17T09:44:25.820Z,101206.03
2022-10-17T09:49:33.359Z,101227.47
2022-10-17T09:54:50.416Z,101233.75
2022-10-17T10:00:02.503Z,101232.38
2022-10-17T10:05:17.224Z,101237.44
2022-10-17T10:10:27.779Z,101238.16
2022-10-17T10:15:32.422Z,101268.53
2022-10-17T10:20:35.655Z,101287.97
2022-10-17T10:25:37.120Z,101317.28
2022-10-17T10:30:39.934Z,101308.88
2022-10-17T10:35:41.659Z,101301.22
2022-10-17T10:40:48.068Z,101301.94
2022-10-17T10:45:49.573Z,101331.75
2022-10-17T10:51:12.424Z,101325.34
2022-10-17T10:56:24.707Z,101319.63
2022-10-17T11:02:13.128Z,101339.16
2022-10-17T11:07:15.994Z,101343.38
2022-10-17T11:12:20.917Z,101355.75
2022-10-17T11:17:35.120Z,101354.81
2022-10-17T11:22:47.926Z,101350.16
2022-10-17T11:27:49.430Z,101366.66
2022-10-17T11:32:53.820Z,101379.31
2022-10-17T11:38:24.437Z,101383.88
2022-10-17T11:43:32.330Z,101400.47
2022-10-17T11:49:07.618Z,101385.00
2022-10-17T11:54:13.781Z,101355.28
2022-10-17T11:59:38.237Z,101350.97
2022-10-17T12:04:49.622Z,101317.47
2022-10-17T12:09:54.318Z,101296.25
2022-10-17T12:15:24.309Z,101294.66
2022-10-17T12:20:27.728Z,101296.25
2022-10-17T12:25:32.046Z,101308.28
2022-10-17T12:30:33.662Z,101322.06
2022-10-17T12:35:36.372Z,101332.75
2022-10-17T12:40:37.684Z,101332.63
2022-10-17T12:45:58.062Z,101344.78
2022-10-17T12:56:46.720Z,101370.44
2022-10-17T13:01:50.977Z,101370.66
2022-10-17T13:06:54.326Z,101377.56
2022-10-17T13:11:57.463Z,101391.78
2022-10-17T13:17:00.730Z,101394.03
2022-10-17T13:22:06.900Z,101400.31
2022-10-17T13:27:25.547Z,101413.44
2022-10-17T13:32:34.555Z,101419.47
2022-10-17T13:37:36.139Z,101416.19
2022-10-17T13:42:38.951Z,101433.75
2022-10-17T13:47:40.426Z,101430.59
2022-10-17T13:52:41.902Z,101440.88
2022-10-17T13:57:43.354Z,101444.25
2022-10-17T14:02:44.846Z,101447.47
2022-10-17T14:08:15.110Z,101446.84
2022-10-17T14:13:21.537Z,101459.69
2022-10-17T14:18:36.467Z,101463.59
2022-10-17T14:23:40.391Z,101466.53
2022-10-17T14:28:43.360Z,101466.16
2022-10-17T14:33:50.446Z,101485.31
2022-10-17T14:38:52.754Z,101493.09
2022-10-17T14:44:01.980Z,101488.94
2022-10-17T14:49:06.193Z,101492.66
2022-10-17T14:54:25.057Z,101484.88
2022-10-17T15:04:47.848Z,101498.00
2022-10-17T15:09:50.251Z,101513.75
2022-10-17T15:14:51.805Z,101515.56
2022-10-17T15:19:53.330Z,101530.59
2022-10-17T15:24:54.816Z,101535.25
2022-10-17T15:29:56.269Z,101534.81
2022-10-17T15:34:57.774Z,101542.59
2022-10-17T15:39:59.228Z,101548.72
2022-10-17T15:45:00.717Z,101556.53
2022-10-17T15:50:02.258Z,101547.53
2022-10-17T15:55:05.535Z,101553.38
2022-10-17T16:00:16.370Z,101561.31
2022-10-17T16:05:23.075Z,101578.44
2022-10-17T16:10:25.862Z,101580.06
2022-10-17T16:15:27.967Z,101571.88
2022-10-17T16:20:29.462Z,101575.84
2022-10-17T16:25:31.270Z,101573.28
2022-10-17T16:30:32.815Z,101587.09
2022-10-17T16:35:36.762Z,101596.94
2022-10-17T16:40:40.114Z,101606.94
2022-10-17T16:45:41.576Z,101603.81
2022-10-17T16:50:43.033Z,101607.56
2022-10-17T16:55:44.479Z,101605.25
2022-10-17T17:00:45.998Z,101617.25
2022-10-17T17:05:51.744Z,101613.06
2022-10-17T17:10:55.292Z,101605.38
2022-10-17T17:16:06.977Z,101611.78
2022-10-17T17:21:09.099Z,101613.56
2022-10-17T17:26:20.858Z,101608.63
2022-10-17T17:31:24.359Z,101624.69
2022-10-17T17:36:30.565Z,101645.31
2022-10-17T17:41:32.114Z,101636.88
2022-10-17T17:46:33.570Z,101643.03
2022-10-17T17:51:37.406Z,101639.41
2022-10-17T17:56:38.881Z,101640.91
2022-10-17T18:01:40.445Z,101669.19
2022-10-17T18:06:42.006Z,101680.88
2022-10-17T18:11:43.452Z,101676.25
2022-10-17T18:16:44.909Z,101686.75
2022-10-17T18:21:46.390Z,101697.09
2022-10-17T18:26:47.849Z,101696.44
2022-10-17T18:31:49.397Z,101701.41
2022-10-17T18:36:52.769Z,101715.88
2022-10-17T18:41:54.342Z,101719.81
2022-10-17T18:46:58.563Z,101715.19
2022-10-17T18:52:02.963Z,101739.09
2022-10-17T18:57:04.554Z,101755.75
2022-10-17T19:02:06.543Z,101778.47
2022-10-17T19:07:08.089Z,101762.06
2022-10-17T19:12:09.545Z,101773.31
2022-10-17T19:17:10.994Z,101776.50
2022-10-17T19:22:12.450Z,101768.38
2022-10-17T19:27:13.932Z,101775.72
2022-10-17T19:32:17.933Z,101788.69
2022-10-17T19:37:22.175Z,101781.59
2022-10-17T19:42:23.685Z,101783.34
2022-10-17T19:47:25.318Z,101790.75
2022-10-17T19:52:27.649Z,101797.28
2022-10-17T19:57:29.239Z,101797.56
2022-10-17T20:02:30.913Z,101798.88
2022-10-17T20:07:32.563Z,101809.16
2022-10-17T20:12:34.224Z,101810.00
2022-10-17T20:17:35.701Z,101815.97
2022-10-17T20:22:37.176Z,101836.34
2022-10-17T20:27:38.658Z,101839.38
2022-10-17T20:32:40.126Z,101829.00
2022-10-17T20:37:42.737Z,101849.47
2022-10-17T20:42:44.553Z,101857.31
2022-10-17T20:47:52.327Z,101866.28
2022-10-17T20:53:10.974Z,101871.78
2022-10-17T20:58:15.456Z,101871.63
2022-10-17T21:03:16.904Z,101871.44
2022-10-17T21:08:18.352Z,101886.94
2022-10-17T21:13:19.796Z,101896.16
2022-10-17T21:18:21.237Z,101892.13
2022-10-17T21:23:22.720Z,101916.22
2022-10-17T21:28:24.177Z,101917.72
2022-10-17T21:33:25.643Z,101909.63
2022-10-17T21:38:27.089Z,101904.25
2022-10-17T21:43:28.558Z,101918.88
2022-10-17T21:48:30.013Z,101919.06
2022-10-17T21:53:31.493Z,101914.50
2022-10-17T21:58:33.455Z,101916.78
2022-10-17T22:03:35.638Z,101911.84
2022-10-17T22:08:36.956Z,101911.66
2022-10-17T22:13:38.450Z,101918.13
2022-10-17T22:18:40.017Z,101917.03
2022-10-17T22:23:42.225Z,101899.84
2022-10-17T22:28:43.675Z,101909.13
2022-10-17T22:33:45.144Z,101923.16
2022-10-17T22:38:46.593Z,101923.81
2022-10-17T22:43:48.164Z,101921.19
2022-10-17T22:48:49.643Z,101919.34
2022-10-17T22:53:51.106Z,101927.81
2022-10-17T22:58:52.599Z,101930.50
2022-10-17T23:03:54.147Z,101944.34
2022-10-17T23:08:55.649Z,101943.44
2022-10-17T23:13:57.140Z,101929.47
2022-10-17T23:18:58.646Z,101919.16
2022-10-17T23:24:00.095Z,101930.03
2022-10-17T23:29:01.608Z,101926.13
2022-10-17T23:34:03.163Z,101938.69
2022-10-17T23:39:05.484Z,101930.47
2022-10-17T23:44:06.974Z,101933.81
2022-10-17T23:49:08.430Z,101930.22
2022-10-17T23:54:09.871Z,101927.91
2022-10-17T23:59:11.371Z,101931.34
